NCAR-RAP Real-Time Weather Data

Output produced by METARs form (17 September 2019  16:48 UTC)
found at http://weather.rap.ucar.edu/surface/
 
KCAR 171554Z AUTO 01009KT 10SM OVC045 14/04 A3016 RMK AO2 SLP218 T01390039
KCAR 171454Z AUTO 03011KT 10SM FEW033 OVC045 13/05 A3016 RMK AO2 SLP218 T01330050 51013
KCAR 171354Z AUTO 01011G18KT 10SM FEW025 BKN030 OVC046 12/06 A3016 RMK AO2 SLP217 T01220056
KCAR 171254Z AUTO 01008KT 10SM BKN018 OVC027 11/06 A3014 RMK AO2 SLP213 T01060061
KCAR 171229Z AUTO 36011KT 10SM BKN018 BKN028 OVC035 11/07 A3013 RMK AO2 T01060067
KCAR 171202Z AUTO 35007KT 10SM SCT020 OVC035 10/07 A3012 RMK AO2 T01000067
KCAR 171154Z AUTO 35006KT 10SM BKN020 OVC033 10/07 A3012 RMK AO2 SLP204 T01000067 10106 20083 51021
KCAR 171054Z AUTO 35005KT 10SM OVC022 09/07 A3010 RMK AO2 SLP199 T00940067
KCAR 170954Z AUTO 35006KT 10SM BKN025 OVC037 09/07 A3008 RMK AO2 SLP190 T00940067
KCAR 170914Z AUTO 33007KT 10SM BKN021 OVC033 09/07 A3006 RMK AO2 T00890067
KCAR 170854Z AUTO 35005KT 10SM FEW021 OVC031 09/07 A3006 RMK AO2 SLP183 T00890067 53009
KCAR 170754Z AUTO 35004KT 10SM CLR 09/07 A3004 RMK AO2 SLP178 T00890067
KCAR 170654Z AUTO 35007KT 10SM OVC070 10/07 A3004 RMK AO2 SLP176 T01000072
KCAR 170554Z AUTO 36007KT 10SM OVC070 11/07 A3003 RMK AO2 RAB07E16 SLP173 P0000 60000 T01060072 10133 20106 53013
KCAR 170454Z AUTO 35006KT 10SM BKN075 OVC100 11/08 A3001 RMK AO2 SLP168 T01110083 401670083
KCAR 170354Z AUTO 35006KT 10SM OVC075 12/09 A3000 RMK AO2 SLP162 T01220089
KCAR 170254Z AUTO 36006KT 10SM FEW060 OVC075 13/11 A2999 RMK AO2 SLP159 60000 T01280106 53005
KCAR 170054Z AUTO 34006KT 10SM BKN025 OVC044 13/11 A2997 RMK AO2 RAB20E33 SLP155 P0000 T01330106
KCAR 170052Z AUTO 33006KT 10SM BKN025 BKN045 OVC090 13/11 A2997 RMK AO2 RAB20E33 P0000
KCAR 162354Z AUTO 32004KT 10SM BKN045 OVC085 13/10 A2996 RMK AO2 SLP150 T01330100 10161 20133 51014
KCAR 162254Z AUTO 31004KT 10SM BKN036 OVC080 14/10 A2995 RMK AO2 SLP146 T01390100
KCAR 162154Z AUTO 33007KT 10SM SCT026 OVC033 14/10 A2993 RMK AO2 SLP141 T01440100
KCAR 162054Z AUTO 33008KT 10SM OVC027 15/10 A2992 RMK AO2 SLP136 T01500100 53008
KCAR 161954Z AUTO 34009KT 10SM OVC029 15/09 A2991 RMK AO2 SLP133 T01500094
KCAR 161942Z AUTO 32009KT 10SM BKN029 OVC035 16/09 A2991 RMK AO2 T01560094
KCAR 161854Z AUTO 34007KT 10SM OVC030 16/09 A2990 RMK AO2 SLP131 T01560094